Details From SCAR - CHACALLUTA
To SCDA - DIEGO ARACENA INTL
Flight Number -
Tags generated
Created
Modified
Stats Distance 132 nm / 244 km
Max Altitude 13,900 ft / 4,237 m
Waypoints 3
Social Downloads 6
Likes 0
Share VATSIM

Download

Looking for another format? Having issues loading an existing format? Contact us
Advertisement - Login to hide

Notes

Basic altitude profile: - Ascent Rate: 2500ft/min - Ascent Speed: 250kts - Cruise Altitude: 35000ft - Cruise Speed: 420kts - Descent Rate: 1500ft/min - Descent Speed: 250kts

Route

SCAR CAMAR SCDA

ID Type Via Altitude Latitude Longitude Leg Dist Tot Dist Heading (true) Name
O SCAR APT - 0 ft / 0 m -18.34853˚ -70.33874˚ - 0 nm - CHACALLUTA
CAMAR FIX - 13,900 ft / 4,237 m -19.37444˚ -70.25972˚ 61 nm 61 nm 176° / 176° -
O SCDA APT - 0 ft / 0 m -20.53523˚ -70.18128˚ 69 nm 131 nm 176° / 176° DIEGO ARACENA INTL

Altitude Profile

Advertisement - Login to hide

SCAR

Details ICAO SCAR (ARI)
Name CHACALLUTA
Region Chile
Timezone America/Santiago (UTC-3.0)
Stats Elevation 167 ft / 51 m (AMSL)
Location -18.348530° -70.338741°
Runways 1
Magnetic Variation 5.490° W

METAR

SCAR 180000Z 14001KT CAVOK 20/13 Q1014

Decode

TAF

TAF SCAR 171619Z 1718/1818 21015KT CAVOK TX22/1718Z TN17/1806Z BECMG 1800/1802 18004KT BKN100 BECMG 1806/1808 07004KT CAVOK BECMG 1811/1813 16005KT BECMG 1816/1818 22013KT

Decode

Departure Runways

ID Width Length Bearing (true) Bearing (mag) Surface Threshold Offset Overrun Length
02 148 ft / 45 m 7,184 ft / 2,190 m 19.17° 24.66° Asphalt 0 ft / 0 m 2,075 ft / 632 m
20 148 ft / 45 m 7,184 ft / 2,190 m 199.17° 204.66° Asphalt 0 ft / 0 m 197 ft / 60 m

SCDA

Details ICAO SCDA (IQQ)
Name DIEGO ARACENA INTL
Region Chile
Timezone America/Santiago (UTC-3.0)
Stats Elevation 155 ft / 47 m (AMSL)
Location -20.535228° -70.181279°
Runways 1
Magnetic Variation 4.864° W

METAR

SCDA 180000Z 21008KT CAVOK 21/13 Q1013

Decode

TAF

TAF TAF SCDA 172216Z 1800/1824 19007KT CAVOK TN17/1806Z TX23/1817Z BECMG 1801/1803 FEW030 SCT200 BECMG 1808/1810 11004KT BECMG 1812/1813 15005KT BECMG 1816/1818 22015KT

Decode

Destination Runways

ID Width Length Bearing (true) Bearing (mag) Surface Threshold Offset Overrun Length
18 148 ft / 45 m 11,048 ft / 3,368 m 182.87° 187.73° Asphalt 0 ft / 0 m 200 ft / 61 m
36 148 ft / 45 m 11,048 ft / 3,368 m 2.87° 7.73° Asphalt 0 ft / 0 m 590 ft / 180 m

Approach Navaids

Runway Type Ident Frequency Range Bearing (true) Bearing (mag) Slope Elevation
18 Localiser IIQQ 109.90 MHz 18 nm / 33 km 182.85° 187.72° - 174 ft / 53 m (AMSL)
18 Glidescope IIQQ 109.90 MHz 10 nm / 19 km 182.87° 187.73° 3.20° 105 ft / 32 m (AMSL)
18 DME IIQQ 109.90 MHz 18 nm / 33 km - - - 105 ft / 32 m (AMSL)

Popular Alternatives